Time;durP1;ratioP1;P1;durP2;ratioP2;P2;SDS_P1;SDS_P2;PMS_P1;PMS_P2;Temp;Humidity;BMP_temperature;BMP_pressure;BME280_temperature;BME280_humidity;BME280_pressure;Samples;Min_cycle;Max_cycle;Signal;HPM_P1;HPM_P2
2023/05/30 00:00:50;;;;;;;13.15;6.50;;;16.90;99.90;;;;;;5064692;28;20112;-75
2023/05/30 00:03:17;;;;;;;10.60;5.50;;;16.90;99.90;;;;;;5063868;28;20031;-76
2023/05/30 00:05:43;;;;;;;8.60;5.30;;;16.90;99.90;;;;;;5064637;28;20197;-75
2023/05/30 00:08:08;;;;;;;7.67;5.23;;;16.90;99.90;;;;;;5063792;28;20103;-78
2023/05/30 00:10:34;;;;;;;8.30;5.50;;;16.70;99.90;;;;;;5064871;28;20423;-75
2023/05/30 00:13:00;;;;;;;10.30;5.15;;;16.60;99.90;;;;;;5062006;28;20033;-74
2023/05/30 00:15:26;;;;;;;11.40;5.57;;;16.50;99.90;;;;;;5066083;28;20124;-73
2023/05/30 00:17:52;;;;;;;10.35;5.25;;;16.50;99.90;;;;;;5063069;28;20045;-75
2023/05/30 00:20:22;;;;;;;11.23;5.70;;;16.50;99.90;;;;;;5056783;28;20033;-75
2023/05/30 00:22:49;;;;;;;10.70;5.43;;;16.50;99.90;;;;;;5067740;28;20030;-75
2023/05/30 00:25:14;;;;;;;13.15;6.07;;;16.20;99.90;;;;;;5063445;28;20528;-77
2023/05/30 00:27:40;;;;;;;12.53;6.00;;;16.30;99.90;;;;;;5098508;28;20016;-74
2023/05/30 00:30:06;;;;;;;9.07;5.80;;;16.30;99.90;;;;;;5060271;28;20040;-75
2023/05/30 00:32:34;;;;;;;12.10;6.22;;;16.20;99.90;;;;;;5062369;28;20039;-78
2023/05/30 00:34:59;;;;;;;9.02;5.82;;;16.00;99.90;;;;;;5064197;28;20040;-76
2023/05/30 00:37:25;;;;;;;14.73;6.37;;;16.30;99.90;;;;;;5064728;28;20036;-77
2023/05/30 00:39:51;;;;;;;12.50;6.45;;;16.30;99.90;;;;;;5070503;28;20040;-77
2023/05/30 00:42:16;;;;;;;17.20;5.87;;;16.10;99.90;;;;;;5063367;28;20036;-78
2023/05/30 00:44:42;;;;;;;12.53;5.43;;;15.90;99.90;;;;;;5067847;28;20040;-76
2023/05/30 00:47:08;;;;;;;11.33;6.30;;;15.80;99.90;;;;;;5066332;28;20032;-74
2023/05/30 00:49:34;;;;;;;7.80;5.65;;;15.70;99.90;;;;;;5060389;28;20086;-72
2023/05/30 00:52:00;;;;;;;11.98;5.72;;;15.70;99.90;;;;;;5061718;28;20036;-77
2023/05/30 00:54:26;;;;;;;8.60;5.78;;;15.70;99.90;;;;;;5063344;28;20024;-78
2023/05/30 00:56:52;;;;;;;9.00;5.72;;;15.50;99.90;;;;;;5063865;28;20558;-77
2023/05/30 00:59:18;;;;;;;10.38;5.85;;;15.40;99.90;;;;;;5058136;28;20025;-75
2023/05/30 01:01:43;;;;;;;12.75;5.22;;;15.30;99.90;;;;;;5064357;28;20052;-74
2023/05/30 01:04:10;;;;;;;11.23;6.03;;;15.30;99.90;;;;;;5063428;28;20033;-73
2023/05/30 01:06:37;;;;;;;10.45;6.05;;;15.40;99.90;;;;;;5067444;28;20274;-72
2023/05/30 01:09:04;;;;;;;11.63;5.82;;;15.60;99.90;;;;;;5058327;28;20045;-74
2023/05/30 01:11:48;;;;;;;9.05;5.53;;;15.70;99.90;;;;;;5065493;28;20025;-77
2023/05/30 01:14:46;;;;;;;13.75;5.57;;;15.50;99.90;;;;;;5065900;28;20024;-77
2023/05/30 01:17:36;;;;;;;14.10;5.72;;;15.50;99.90;;;;;;5064139;28;20049;-71
2023/05/30 01:20:12;;;;;;;9.25;5.07;;;15.60;99.90;;;;;;5077046;28;20060;-74
2023/05/30 01:23:05;;;;;;;9.38;6.05;;;15.60;99.90;;;;;;5061665;28;20040;-77
2023/05/30 01:26:00;;;;;;;7.65;5.18;;;15.80;99.90;;;;;;5064618;28;20051;-76
2023/05/30 01:28:29;;;;;;;12.70;6.13;;;15.70;99.90;;;;;;5060855;28;20482;-72
2023/05/30 01:30:56;;;;;;;9.75;6.30;;;15.70;99.90;;;;;;5069800;28;20076;-76
2023/05/30 01:33:23;;;;;;;12.23;5.95;;;15.80;99.90;;;;;;5061436;28;20021;-76
2023/05/30 01:35:50;;;;;;;19.58;7.07;;;15.90;99.90;;;;;;5069682;28;20491;-75
2023/05/30 01:38:16;;;;;;;9.23;5.95;;;15.80;99.90;;;;;;5061685;28;20044;-71
2023/05/30 01:40:55;;;;;;;9.53;5.40;;;15.50;99.90;;;;;;5062500;28;20100;-73
2023/05/30 01:43:48;;;;;;;11.38;5.95;;;15.30;99.90;;;;;;5058863;28;20029;-76
2023/05/30 01:46:36;;;;;;;9.38;5.32;;;15.60;99.90;;;;;;5061030;28;20037;-76
2023/05/30 01:49:27;;;;;;;10.93;6.28;;;15.40;99.90;;;;;;5064343;28;20020;-72
2023/05/30 01:51:57;;;;;;;9.48;5.93;;;15.50;99.90;;;;;;5067849;28;20035;-74
2023/05/30 01:54:25;;;;;;;10.32;5.75;;;15.50;99.90;;;;;;5065434;28;20025;-75
2023/05/30 01:56:58;;;;;;;10.00;6.07;;;15.40;99.90;;;;;;5063286;28;20098;-75
2023/05/30 01:59:26;;;;;;;7.80;5.72;;;15.20;99.90;;;;;;5057519;28;20493;-76
2023/05/30 02:01:53;;;;;;;9.20;5.20;;;15.30;99.90;;;;;;5066665;28;20025;-75
2023/05/30 02:04:19;;;;;;;8.25;5.38;;;15.50;99.90;;;;;;5059218;28;20135;-76
2023/05/30 02:06:45;;;;;;;10.07;6.20;;;15.50;99.90;;;;;;5057560;28;20155;-75
2023/05/30 02:09:10;;;;;;;13.87;6.37;;;15.60;99.90;;;;;;5068389;28;20028;-76
2023/05/30 02:11:37;;;;;;;10.40;5.67;;;15.70;99.90;;;;;;5063558;28;20016;-73
2023/05/30 02:14:04;;;;;;;11.02;5.63;;;15.60;99.90;;;;;;5066695;28;20029;-75
2023/05/30 02:16:30;;;;;;;8.32;5.65;;;15.50;99.90;;;;;;5064224;28;20035;-75
2023/05/30 02:18:57;;;;;;;12.40;6.03;;;15.50;99.90;;;;;;5062137;28;20037;-77
2023/05/30 02:21:22;;;;;;;11.52;6.38;;;15.40;99.90;;;;;;5060919;28;20035;-72
2023/05/30 02:23:48;;;;;;;12.43;5.80;;;15.40;99.90;;;;;;5060973;28;20495;-72
2023/05/30 02:26:13;;;;;;;15.53;5.80;;;15.40;99.90;;;;;;5059381;28;20039;-71
2023/05/30 02:28:39;;;;;;;8.70;5.00;;;15.50;99.90;;;;;;5065007;28;20036;-71
2023/05/30 02:31:05;;;;;;;7.30;4.77;;;15.60;99.90;;;;;;5059567;28;20036;-73
2023/05/30 02:33:30;;;;;;;11.32;5.43;;;15.70;99.90;;;;;;5061599;28;20476;-75
2023/05/30 02:35:56;;;;;;;11.20;6.20;;;15.60;99.90;;;;;;5062564;28;20395;-75
2023/05/30 02:38:22;;;;;;;10.50;6.20;;;15.50;99.90;;;;;;5064643;28;20067;-72
2023/05/30 02:40:47;;;;;;;7.97;6.13;;;15.60;99.90;;;;;;5055427;28;20044;-73
2023/05/30 02:43:13;;;;;;;8.40;6.20;;;15.60;99.90;;;;;;5062241;28;20375;-76
2023/05/30 02:45:38;;;;;;;11.97;5.57;;;15.60;99.90;;;;;;5059854;28;20037;-76
2023/05/30 02:48:05;;;;;;;10.60;6.27;;;15.60;99.90;;;;;;5064685;28;20579;-78
2023/05/30 02:50:31;;;;;;;10.55;5.43;;;15.50;99.90;;;;;;5063228;28;20060;-78
2023/05/30 02:52:57;;;;;;;10.23;5.63;;;15.50;99.90;;;;;;5065826;28;20061;-77
2023/05/30 02:55:22;;;;;;;11.43;5.57;;;15.60;99.90;;;;;;5066280;28;20036;-76
2023/05/30 02:57:48;;;;;;;7.50;5.20;;;15.60;99.90;;;;;;5065537;28;21129;-74
2023/05/30 03:00:15;;;;;;;7.63;4.50;;;15.60;99.90;;;;;;5062869;28;20025;-75
2023/05/30 03:02:41;;;;;;;8.15;5.47;;;15.60;99.90;;;;;;5065002;28;20111;-75
2023/05/30 03:05:08;;;;;;;11.68;5.40;;;15.30;99.90;;;;;;5066298;28;20071;-74
2023/05/30 03:07:35;;;;;;;11.00;6.28;;;15.00;99.90;;;;;;5061869;28;20036;-76
2023/05/30 03:10:01;;;;;;;12.55;5.80;;;15.20;99.90;;;;;;5063797;28;20825;-75
2023/05/30 03:12:27;;;;;;;8.63;5.38;;;15.30;99.90;;;;;;5064615;28;20071;-76
2023/05/30 03:14:52;;;;;;;13.93;6.00;;;15.40;99.90;;;;;;5063630;28;20059;-74
2023/05/30 03:17:18;;;;;;;8.27;5.53;;;15.40;99.90;;;;;;5057953;28;20515;-76
2023/05/30 03:19:43;;;;;;;11.03;6.10;;;15.30;99.90;;;;;;5059499;28;20023;-77
2023/05/30 03:22:09;;;;;;;7.50;5.80;;;15.10;99.90;;;;;;5060457;28;20044;-78
2023/05/30 03:24:35;;;;;;;8.63;5.63;;;15.10;99.90;;;;;;5063210;28;20039;-77
2023/05/30 03:27:02;;;;;;;11.43;5.67;;;15.10;99.90;;;;;;5061255;28;20430;-70
2023/05/30 03:29:27;;;;;;;9.68;5.78;;;14.90;99.90;;;;;;5066111;28;20025;-72
2023/05/30 03:31:53;;;;;;;13.20;6.20;;;14.60;99.90;;;;;;5066355;28;20086;-71
2023/05/30 03:34:19;;;;;;;9.70;5.50;;;14.60;99.90;;;;;;5065487;28;20102;-75
2023/05/30 03:36:45;;;;;;;16.03;7.73;;;14.50;99.90;;;;;;5060610;28;20278;-73
2023/05/30 03:39:12;;;;;;;9.80;6.00;;;14.50;99.90;;;;;;5062991;28;20052;-72
2023/05/30 03:41:39;;;;;;;10.43;5.65;;;14.60;99.90;;;;;;5061295;28;20039;-72
2023/05/30 03:44:05;;;;;;;13.13;5.68;;;14.80;99.90;;;;;;5062353;28;20711;-76
2023/05/30 03:46:31;;;;;;;15.83;6.20;;;14.70;99.90;;;;;;5060504;28;20032;-76
2023/05/30 03:48:57;;;;;;;14.07;5.90;;;14.70;99.90;;;;;;5061624;28;20032;-76
2023/05/30 03:51:23;;;;;;;11.47;5.60;;;14.70;99.90;;;;;;5062686;28;20037;-76
2023/05/30 03:53:48;;;;;;;9.63;5.03;;;14.60;99.90;;;;;;5060618;28;20161;-75
2023/05/30 03:56:14;;;;;;;10.50;5.33;;;14.70;99.90;;;;;;5065827;28;20067;-75
2023/05/30 03:58:40;;;;;;;9.57;6.30;;;14.70;99.90;;;;;;5063857;28;20025;-79
2023/05/30 04:01:06;;;;;;;13.32;5.70;;;14.60;99.90;;;;;;5062044;28;20051;-76
2023/05/30 04:03:32;;;;;;;13.30;5.97;;;14.60;99.90;;;;;;5065361;28;20531;-75
2023/05/30 04:05:58;;;;;;;13.10;5.83;;;14.60;99.90;;;;;;5052243;28;20102;-75
2023/05/30 04:08:24;;;;;;;10.40;5.75;;;14.50;99.90;;;;;;5061457;28;20105;-72
2023/05/30 04:10:50;;;;;;;10.70;5.75;;;14.40;99.90;;;;;;5068881;28;20555;-76
2023/05/30 04:13:15;;;;;;;9.30;5.77;;;14.50;99.90;;;;;;5063126;28;20135;-73
2023/05/30 04:15:41;;;;;;;9.80;5.70;;;14.60;99.90;;;;;;5065351;28;20032;-75
2023/05/30 04:18:07;;;;;;;13.97;5.97;;;14.50;99.90;;;;;;5065136;28;20108;-74
2023/05/30 04:20:33;;;;;;;11.15;5.78;;;14.50;99.90;;;;;;5059018;28;20031;-75
2023/05/30 04:22:59;;;;;;;10.85;6.10;;;14.30;99.90;;;;;;5061507;28;20440;-72
2023/05/30 04:25:25;;;;;;;11.35;5.90;;;14.20;99.90;;;;;;5058553;28;20452;-77
2023/05/30 04:27:51;;;;;;;11.20;7.07;;;14.30;99.90;;;;;;5060597;28;20051;-77
2023/05/30 04:30:16;;;;;;;12.87;6.33;;;14.10;99.90;;;;;;5059837;28;20116;-78
2023/05/30 04:32:42;;;;;;;13.77;6.03;;;14.10;99.90;;;;;;5061994;28;20019;-72
2023/05/30 04:35:08;;;;;;;9.63;5.72;;;14.10;99.90;;;;;;5061474;28;20101;-76
2023/05/30 04:37:38;;;;;;;11.75;6.85;;;14.20;99.90;;;;;;5066753;28;20036;-74
2023/05/30 04:40:05;;;;;;;11.98;6.63;;;14.10;99.90;;;;;;5059968;28;20162;-72
2023/05/30 04:42:33;;;;;;;9.27;6.03;;;14.30;99.90;;;;;;5057973;28;20021;-71
2023/05/30 04:45:00;;;;;;;12.18;5.97;;;14.50;99.90;;;;;;5056080;28;20041;-79
2023/05/30 04:47:28;;;;;;;;;;;14.50;99.90;;;;;;5066205;28;20037;-79
2023/05/30 04:49:54;;;;;;;12.70;6.28;;;14.60;99.90;;;;;;5062045;28;19913;-78
2023/05/30 04:52:21;;;;;;;16.02;7.18;;;14.70;99.90;;;;;;5054155;28;20037;-74
2023/05/30 04:54:46;;;;;;;11.02;6.45;;;15.10;99.90;;;;;;5066760;28;20163;-74
2023/05/30 04:57:15;;;;;;;14.57;6.03;;;15.20;99.90;;;;;;5064225;28;20124;-75
2023/05/30 04:59:41;;;;;;;9.50;6.00;;;15.10;99.90;;;;;;5061340;28;20029;-75
2023/05/30 05:02:08;;;;;;;13.10;6.27;;;15.10;99.90;;;;;;5054164;28;20037;-77
2023/05/30 05:04:33;;;;;;;11.48;6.35;;;15.20;99.90;;;;;;5063185;28;20381;-72
2023/05/30 05:06:59;;;;;;;13.67;6.13;;;15.10;99.90;;;;;;5056831;28;20036;-77
2023/05/30 05:09:25;;;;;;;12.93;6.43;;;15.10;99.90;;;;;;5064763;28;20029;-73
2023/05/30 05:11:51;;;;;;;13.63;7.03;;;15.20;99.90;;;;;;5060012;28;20151;-76
2023/05/30 05:14:17;;;;;;;11.07;6.63;;;15.30;99.90;;;;;;5064813;28;20127;-71
2023/05/30 05:16:43;;;;;;;17.05;6.57;;;15.50;99.90;;;;;;5071414;28;20681;-73
2023/05/30 05:19:08;;;;;;;12.17;6.00;;;15.80;99.90;;;;;;5064304;28;20127;-71
2023/05/30 05:21:35;;;;;;;7.80;5.97;;;16.00;99.90;;;;;;5058467;28;20687;-74
2023/05/30 05:24:01;;;;;;;11.95;7.28;;;16.90;99.90;;;;;;5057474;28;20059;-73
2023/05/30 05:26:26;;;;;;;12.00;6.30;;;17.60;99.90;;;;;;5062582;28;20501;-75
2023/05/30 05:28:52;;;;;;;8.17;5.40;;;18.30;99.90;;;;;;5060646;28;20029;-74
2023/05/30 05:31:18;;;;;;;8.13;5.23;;;18.80;99.60;;;;;;5060239;28;20099;-73
2023/05/30 05:33:43;;;;;;;9.77;6.50;;;19.00;99.00;;;;;;5060258;28;20036;-74
2023/05/30 05:36:09;;;;;;;11.17;6.63;;;20.10;96.90;;;;;;5059938;28;20122;-74
2023/05/30 05:38:35;;;;;;;11.07;5.32;;;21.40;92.70;;;;;;5071321;28;20024;-72
2023/05/30 05:41:00;;;;;;;12.23;5.30;;;22.40;89.20;;;;;;5059818;28;20098;-71
2023/05/30 05:43:26;;;;;;;11.23;4.93;;;23.10;87.00;;;;;;5063899;28;20487;-70
2023/05/30 05:45:52;;;;;;;7.30;5.37;;;23.90;82.40;;;;;;5060753;28;20037;-75
2023/05/30 05:48:18;;;;;;;8.57;5.72;;;24.50;80.60;;;;;;5061166;28;20028;-73
2023/05/30 05:50:43;;;;;;;16.05;6.20;;;25.00;77.50;;;;;;5067511;28;20032;-76
2023/05/30 05:53:09;;;;;;;15.30;6.28;;;25.60;75.30;;;;;;5051467;28;20554;-72
2023/05/30 05:55:35;;;;;;;16.60;5.90;;;25.80;75.00;;;;;;5059389;28;20059;-75
2023/05/30 05:58:00;;;;;;;20.73;5.40;;;26.40;73.50;;;;;;5060264;28;20451;-74
2023/05/30 06:00:26;;;;;;;12.33;5.93;;;26.20;72.20;;;;;;5056495;28;20291;-76
2023/05/30 06:02:52;;;;;;;9.85;6.35;;;25.50;73.60;;;;;;5061333;28;20515;-79
2023/05/30 06:05:18;;;;;;;11.13;5.63;;;26.50;71.20;;;;;;5062050;28;20127;-78
2023/05/30 06:07:44;;;;;;;14.57;5.32;;;26.10;71.60;;;;;;5062314;28;20480;-76
2023/05/30 06:10:09;;;;;;;14.05;5.85;;;27.10;70.70;;;;;;5055533;28;20037;-77
2023/05/30 06:12:35;;;;;;;15.00;5.47;;;27.60;68.40;;;;;;5065462;28;20033;-74
2023/05/30 06:15:01;;;;;;;17.70;5.43;;;28.20;67.30;;;;;;5059408;28;20512;-73
2023/05/30 06:17:27;;;;;;;12.88;5.57;;;27.00;68.10;;;;;;5062326;28;20024;-76
2023/05/30 06:19:53;;;;;;;17.58;7.80;;;27.20;68.40;;;;;;5059486;28;20029;-75
2023/05/30 06:22:18;;;;;;;11.27;5.85;;;27.60;68.50;;;;;;5055252;28;20039;-72
2023/05/30 06:24:44;;;;;;;30.55;6.35;;;27.20;67.20;;;;;;5062827;28;20431;-74
2023/05/30 06:27:10;;;;;;;13.00;6.07;;;27.80;67.70;;;;;;5059221;28;20459;-72
2023/05/30 06:29:35;;;;;;;11.70;6.25;;;26.90;67.40;;;;;;5061040;28;20048;-72
2023/05/30 06:32:01;;;;;;;11.48;5.95;;;25.90;69.40;;;;;;5060628;28;20036;-73
2023/05/30 06:34:27;;;;;;;13.27;5.72;;;26.10;70.30;;;;;;5060868;28;20029;-74
2023/05/30 06:36:53;;;;;;;16.88;5.95;;;26.60;69.20;;;;;;5063016;28;20036;-74
2023/05/30 06:39:18;;;;;;;13.75;6.20;;;26.00;70.30;;;;;;5055495;28;20390;-76
2023/05/30 06:41:45;;;;;;;14.47;6.53;;;25.20;72.00;;;;;;5061579;28;20136;-79
2023/05/30 06:44:11;;;;;;;22.80;6.95;;;24.80;74.50;;;;;;5062131;28;20365;-74
2023/05/30 06:46:37;;;;;;;14.68;6.97;;;24.70;75.20;;;;;;5061162;28;20040;-73
2023/05/30 06:49:03;;;;;;;265.15;18.27;;;25.30;74.10;;;;;;5057354;28;20037;-75
2023/05/30 06:51:29;;;;;;;;;;;25.60;71.90;;;;;;5061969;28;20519;-73
2023/05/30 06:53:55;;;;;;;22.33;7.10;;;25.60;72.10;;;;;;5057375;28;19916;-76
2023/05/30 06:56:20;;;;;;;16.35;6.55;;;25.10;72.10;;;;;;5060343;28;20037;-73
2023/05/30 06:58:46;;;;;;;21.85;7.15;;;25.10;74.60;;;;;;5058780;28;20042;-70
2023/05/30 07:01:12;;;;;;;21.67;6.72;;;24.90;75.20;;;;;;5057520;28;20054;-72
2023/05/30 07:03:37;;;;;;;13.10;6.43;;;24.30;76.70;;;;;;5056420;28;20048;-72
2023/05/30 07:06:03;;;;;;;16.17;7.00;;;24.70;77.40;;;;;;5059119;28;20041;-71
2023/05/30 07:08:29;;;;;;;32.45;11.18;;;24.60;73.70;;;;;;5061968;28;20714;-77
2023/05/30 07:10:55;;;;;;;39.83;10.60;;;24.50;74.80;;;;;;5055714;28;20044;-75
2023/05/30 07:13:20;;;;;;;29.00;10.02;;;24.50;77.20;;;;;;5054594;28;20056;-82
2023/05/30 07:15:47;;;;;;;11.38;5.65;;;24.10;78.90;;;;;;5058991;28;20557;-75
2023/05/30 07:18:13;;;;;;;11.38;5.68;;;23.60;78.20;;;;;;5061317;28;20041;-79
2023/05/30 07:20:38;;;;;;;10.02;5.82;;;23.50;76.50;;;;;;5062421;28;20052;-80
2023/05/30 07:23:04;;;;;;;16.05;5.90;;;23.30;77.70;;;;;;5058066;28;20036;-75
2023/05/30 07:25:30;;;;;;;9.05;5.60;;;22.90;79.40;;;;;;5057193;28;20040;-81
2023/05/30 07:27:56;;;;;;;8.60;5.10;;;22.90;80.90;;;;;;5064089;28;20166;-79
2023/05/30 07:30:21;;;;;;;8.48;5.22;;;23.00;80.20;;;;;;5053785;28;20779;-75
2023/05/30 07:32:47;;;;;;;13.77;5.80;;;23.00;80.40;;;;;;5057839;28;20869;-75
2023/05/30 07:35:13;;;;;;;12.65;5.85;;;22.80;82.10;;;;;;5055242;28;20531;-77
2023/05/30 07:37:38;;;;;;;10.57;5.50;;;22.80;82.10;;;;;;5058449;28;20044;-74
2023/05/30 07:40:05;;;;;;;12.27;5.47;;;22.80;83.40;;;;;;5054152;28;20294;-74
2023/05/30 07:42:32;;;;;;;10.25;5.95;;;23.00;81.80;;;;;;5060314;28;20067;-72
2023/05/30 07:44:58;;;;;;;11.07;6.22;;;22.80;78.50;;;;;;5056364;28;20040;-74
2023/05/30 07:47:23;;;;;;;13.38;6.82;;;22.90;81.60;;;;;;5062957;28;20109;-73
2023/05/30 07:49:49;;;;;;;13.77;5.83;;;22.90;81.50;;;;;;5059255;28;20036;-72
2023/05/30 07:52:15;;;;;;;13.67;6.77;;;22.80;79.60;;;;;;5059095;28;20528;-73
2023/05/30 07:54:40;;;;;;;14.15;6.25;;;22.70;80.80;;;;;;5054654;28;20016;-74
2023/05/30 07:57:06;;;;;;;8.43;6.07;;;22.80;82.50;;;;;;5054341;28;20382;-72
2023/05/30 07:59:32;;;;;;;13.07;6.13;;;22.70;82.20;;;;;;5060312;28;20389;-73
2023/05/30 08:01:58;;;;;;;10.50;5.82;;;22.80;83.80;;;;;;5058348;28;20500;-77
2023/05/30 08:04:24;;;;;;;15.40;6.10;;;22.70;83.50;;;;;;5057223;28;20097;-72
2023/05/30 08:06:49;;;;;;;12.15;6.35;;;22.90;84.80;;;;;;5058517;28;20043;-80
2023/05/30 08:09:16;;;;;;;11.83;6.63;;;23.30;83.50;;;;;;5060194;28;20048;-77
2023/05/30 08:11:41;;;;;;;;;;;23.40;84.60;;;;;;5056712;28;20036;-76
2023/05/30 08:14:07;;;;;;;15.60;6.50;;;24.40;80.40;;;;;;5054429;28;19970;-71
2023/05/30 08:16:33;;;;;;;13.50;6.53;;;24.40;80.10;;;;;;5062260;28;20025;-72
2023/05/30 08:18:58;;;;;;;11.82;6.63;;;23.90;82.00;;;;;;5052471;28;20063;-75
2023/05/30 08:21:24;;;;;;;10.50;5.87;;;23.90;79.70;;;;;;5061026;28;20037;-78
2023/05/30 08:23:50;;;;;;;8.35;5.93;;;24.20;79.80;;;;;;5057385;28;20051;-76
2023/05/30 08:26:16;;;;;;;9.80;5.75;;;25.00;78.40;;;;;;5059510;28;20053;-72
2023/05/30 08:28:42;;;;;;;9.85;5.97;;;26.50;73.90;;;;;;5061940;28;20031;-73
2023/05/30 08:31:08;;;;;;;17.58;7.07;;;27.50;71.10;;;;;;5087622;28;20025;-72
2023/05/30 08:33:35;;;;;;;17.95;6.60;;;27.50;71.20;;;;;;5054218;28;20040;-71
2023/05/30 08:36:01;;;;;;;10.70;5.88;;;26.50;73.30;;;;;;5059095;28;20048;-70
2023/05/30 08:38:27;;;;;;;10.73;6.18;;;26.20;73.50;;;;;;5056373;28;20044;-73
2023/05/30 08:40:53;;;;;;;15.82;6.00;;;26.20;73.50;;;;;;5055766;28;20116;-72
2023/05/30 08:43:19;;;;;;;16.55;5.68;;;26.20;72.80;;;;;;5056448;28;20032;-74
2023/05/30 08:45:46;;;;;;;10.95;6.30;;;25.70;75.30;;;;;;5061197;28;20040;-78
2023/05/30 08:48:13;;;;;;;18.10;9.52;;;25.30;74.70;;;;;;5061541;28;20341;-76
2023/05/30 08:50:40;;;;;;;10.00;7.03;;;25.20;77.30;;;;;;5057338;28;20029;-74
2023/05/30 08:53:12;;;;;;;13.10;7.22;;;25.10;75.40;;;;;;5055741;28;20029;-73
2023/05/30 08:55:43;;;;;;;14.23;5.90;;;25.20;74.30;;;;;;5059494;28;20036;-70
2023/05/30 08:58:20;;;;;;;10.88;5.57;;;25.80;74.90;;;;;;5061825;28;20405;-72
2023/05/30 09:00:48;;;;;;;11.07;6.65;;;26.30;72.80;;;;;;5055273;28;20033;-72
2023/05/30 09:03:15;;;;;;;14.15;5.95;;;26.40;71.90;;;;;;5060584;28;20020;-72
2023/05/30 09:05:42;;;;;;;9.95;5.30;;;26.40;74.30;;;;;;5061144;28;20051;-74
2023/05/30 09:08:09;;;;;;;16.58;6.22;;;26.50;73.70;;;;;;5057840;28;20033;-72
2023/05/30 09:10:41;;;;;;;13.90;5.50;;;26.80;71.00;;;;;;5059137;28;20104;-70
2023/05/30 09:13:06;;;;;;;10.43;5.95;;;26.70;71.00;;;;;;5056176;28;20033;-74
2023/05/30 09:15:32;;;;;;;10.98;5.55;;;27.00;71.10;;;;;;5059676;28;20036;-72
2023/05/30 09:17:58;;;;;;;14.32;6.15;;;27.00;72.70;;;;;;5056667;28;20087;-74
2023/05/30 09:20:28;;;;;;;12.32;6.45;;;26.90;70.70;;;;;;5058777;28;20461;-77
2023/05/30 09:22:54;;;;;;;7.25;5.60;;;27.00;70.00;;;;;;5059810;28;20525;-77
2023/05/30 09:25:19;;;;;;;14.48;5.80;;;27.10;69.90;;;;;;5061333;28;20032;-71
2023/05/30 09:27:50;;;;;;;9.32;6.18;;;27.10;71.70;;;;;;5066990;28;20040;-76
2023/05/30 09:30:16;;;;;;;14.50;6.03;;;27.10;69.90;;;;;;5062534;28;20033;-76
2023/05/30 09:32:58;;;;;;;10.65;5.90;;;27.20;70.50;;;;;;5062492;28;20448;-72
2023/05/30 09:35:25;;;;;;;12.40;5.70;;;27.50;69.80;;;;;;5063465;28;20089;-76
2023/05/30 09:37:51;;;;;;;11.65;5.50;;;27.10;69.10;;;;;;5065097;28;20025;-72
2023/05/30 09:40:17;;;;;;;10.00;5.97;;;27.20;68.50;;;;;;5058322;28;20028;-70
2023/05/30 09:42:48;;;;;;;12.98;6.05;;;27.50;69.50;;;;;;5061067;28;20032;-71
2023/05/30 09:45:18;;;;;;;10.35;6.63;;;27.60;69.10;;;;;;5057837;28;20099;-70
2023/05/30 09:47:45;;;;;;;10.95;5.80;;;27.50;68.80;;;;;;5065063;28;20023;-70
2023/05/30 09:50:19;;;;;;;13.52;6.05;;;27.30;66.30;;;;;;5066118;28;20044;-67
2023/05/30 09:52:48;;;;;;;12.48;5.13;;;27.60;71.60;;;;;;5056708;28;20493;-79
2023/05/30 09:55:15;;;;;;;11.15;6.00;;;27.60;71.70;;;;;;5058714;28;20029;-75
2023/05/30 09:57:45;;;;;;;8.80;5.45;;;27.30;70.00;;;;;;5061155;28;20031;-77
2023/05/30 10:00:15;;;;;;;9.05;5.43;;;27.20;66.70;;;;;;5055734;28;20495;-78
2023/05/30 10:02:43;;;;;;;22.67;8.50;;;27.30;70.30;;;;;;5076113;28;20024;-72
2023/05/30 10:05:24;;;;;;;13.90;5.68;;;27.50;68.20;;;;;;5059355;28;20436;-77
2023/05/30 10:07:52;;;;;;;7.78;5.20;;;27.40;71.40;;;;;;5062447;28;20436;-71
2023/05/30 10:10:18;;;;;;;11.88;5.68;;;27.30;67.10;;;;;;5058813;28;20017;-70
2023/05/30 10:12:48;;;;;;;9.77;6.20;;;27.30;68.80;;;;;;5062804;28;20039;-77
2023/05/30 10:15:14;;;;;;;9.95;5.82;;;27.30;69.40;;;;;;5060522;28;20064;-74
2023/05/30 10:17:50;;;;;;;9.50;6.03;;;27.30;68.80;;;;;;5060026;28;20505;-76
2023/05/30 10:20:18;;;;;;;13.07;5.57;;;27.10;68.50;;;;;;5056006;28;20037;-75
2023/05/30 10:22:46;;;;;;;11.75;5.88;;;27.00;69.40;;;;;;5059054;28;20023;-78
2023/05/30 10:25:13;;;;;;;20.25;6.80;;;27.00;68.70;;;;;;5060155;28;20510;-77
2023/05/30 10:27:47;;;;;;;9.35;5.55;;;27.10;68.10;;;;;;5064438;28;20012;-74
2023/05/30 10:30:17;;;;;;;8.52;4.90;;;27.20;70.30;;;;;;5059156;28;20606;-70
2023/05/30 10:32:47;;;;;;;9.40;5.70;;;27.20;70.00;;;;;;5066450;28;20024;-70
2023/05/30 10:35:19;;;;;;;6.72;4.90;;;27.00;67.70;;;;;;5057172;28;20064;-82
2023/05/30 10:37:46;;;;;;;9.13;4.85;;;27.00;69.10;;;;;;5058757;28;20028;-69
2023/05/30 10:41:00;;;;;;;9.43;5.03;;;27.20;69.00;;;;;;5057368;28;20527;-68
2023/05/30 10:43:40;;;;;;;9.48;5.47;;;27.00;66.30;;;;;;5044352;28;20067;-70
2023/05/30 10:46:30;;;;;;;8.55;5.65;;;27.30;68.60;;;;;;5054161;28;20127;-73
2023/05/30 10:49:06;;;;;;;12.07;5.65;;;27.50;67.30;;;;;;5061178;28;20389;-70
2023/05/30 10:51:57;;;;;;;12.18;5.38;;;27.30;69.60;;;;;;5061873;28;20751;-71
2023/05/30 10:54:24;;;;;;;11.75;6.03;;;27.50;67.00;;;;;;5054456;28;20507;-71
2023/05/30 10:56:51;;;;;;;11.07;5.72;;;27.60;67.40;;;;;;5063080;28;20031;-72
2023/05/30 10:59:20;;;;;;;8.50;5.35;;;27.20;67.10;;;;;;5055359;28;20032;-71
2023/05/30 11:02:05;;;;;;;9.73;5.40;;;26.80;70.50;;;;;;5061831;28;20549;-72
2023/05/30 11:04:38;;;;;;;10.23;6.15;;;27.20;69.40;;;;;;5057841;28;20032;-68
2023/05/30 11:07:05;;;;;;;12.18;6.40;;;27.20;68.60;;;;;;5060355;28;20037;-72
2023/05/30 11:09:31;;;;;;;10.27;6.38;;;27.40;71.00;;;;;;5056636;28;20079;-73
2023/05/30 11:11:59;;;;;;;10.15;6.63;;;27.30;66.50;;;;;;5057040;28;20063;-72
2023/05/30 11:14:29;;;;;;;12.93;7.38;;;27.40;70.50;;;;;;5056102;28;20112;-71
2023/05/30 11:16:55;;;;;;;14.57;7.43;;;27.40;70.90;;;;;;5053643;28;20089;-72
2023/05/30 11:19:38;;;;;;;10.73;6.93;;;27.50;70.50;;;;;;5056903;28;20067;-69
2023/05/30 11:22:15;;;;;;;11.93;7.35;;;27.60;70.50;;;;;;5057342;28;20424;-70
2023/05/30 11:24:41;;;;;;;12.20;5.97;;;27.80;72.40;;;;;;5054903;28;20044;-72
2023/05/30 11:27:13;;;;;;;12.52;6.32;;;27.70;69.30;;;;;;5057290;28;20116;-70
2023/05/30 11:29:43;;;;;;;13.07;6.88;;;27.80;68.30;;;;;;5062946;28;20086;-71
2023/05/30 11:32:13;;;;;;;11.25;6.00;;;27.80;68.40;;;;;;5058084;28;20021;-72
2023/05/30 11:34:39;;;;;;;10.55;6.95;;;27.50;70.10;;;;;;5059008;28;20025;-71
2023/05/30 11:37:05;;;;;;;16.55;6.75;;;27.60;71.10;;;;;;5055848;28;20394;-68
2023/05/30 11:39:32;;;;;;;16.80;6.40;;;27.50;68.60;;;;;;5060799;28;20071;-71
2023/05/30 11:41:58;;;;;;;10.48;6.30;;;27.40;70.60;;;;;;5088355;28;20041;-70
2023/05/30 11:44:24;;;;;;;13.45;6.82;;;27.60;69.00;;;;;;5060038;28;20029;-70
2023/05/30 11:47:04;;;;;;;11.60;6.80;;;27.60;70.80;;;;;;5060696;28;20045;-71
2023/05/30 11:49:31;;;;;;;13.07;7.05;;;27.60;70.40;;;;;;5059863;28;20107;-70
2023/05/30 11:51:57;;;;;;;14.88;6.45;;;27.70;71.10;;;;;;5056837;28;20041;-70
2023/05/30 11:54:23;;;;;;;12.65;8.05;;;27.60;68.20;;;;;;5058040;28;20025;-71
2023/05/30 11:56:50;;;;;;;15.13;7.30;;;27.60;68.30;;;;;;5059456;28;20058;-71
2023/05/30 11:59:20;;;;;;;9.07;7.50;;;27.50;70.80;;;;;;5052183;28;20064;-71
2023/05/30 12:01:52;;;;;;;17.30;6.93;;;27.60;70.10;;;;;;5056463;28;20044;-72
2023/05/30 12:04:40;;;;;;;10.32;6.32;;;27.70;69.80;;;;;;5060439;28;20032;-72
2023/05/30 12:07:06;;;;;;;10.60;6.53;;;27.70;67.40;;;;;;5057586;28;20054;-72
2023/05/30 12:09:39;;;;;;;9.82;6.50;;;27.80;69.10;;;;;;5057967;28;20025;-72
2023/05/30 12:12:06;;;;;;;16.92;6.38;;;27.80;66.60;;;;;;5059098;28;20044;-73
2023/05/30 12:14:39;;;;;;;8.00;5.10;;;27.80;69.60;;;;;;5058386;28;20021;-71
2023/05/30 12:17:17;;;;;;;15.50;5.90;;;27.70;66.20;;;;;;5058158;28;20033;-72
2023/05/30 12:19:44;;;;;;;9.90;5.40;;;28.00;67.10;;;;;;5092892;28;20373;-72
2023/05/30 12:22:15;;;;;;;9.25;5.78;;;27.90;71.10;;;;;;5055994;28;20036;-71
2023/05/30 12:24:42;;;;;;;11.88;5.80;;;27.50;71.20;;;;;;5062911;28;20903;-73
2023/05/30 12:27:17;;;;;;;;;;;27.30;71.10;;;;;;5057479;28;20414;-78
2023/05/30 12:29:42;;;;;;;8.98;4.90;;;27.20;67.00;;;;;;5059711;28;19918;-76
2023/05/30 12:32:08;;;;;;;9.18;5.93;;;27.10;64.80;;;;;;5066443;28;20032;-74
2023/05/30 12:34:46;;;;;;;11.00;5.15;;;27.20;70.70;;;;;;5062159;28;20060;-73
2023/05/30 12:37:17;;;;;;;11.05;5.85;;;27.20;69.60;;;;;;5065571;28;20058;-74
2023/05/30 12:40:00;;;;;;;10.30;5.72;;;27.20;69.30;;;;;;5059997;28;20494;-74
2023/05/30 12:42:30;;;;;;;9.30;6.35;;;27.20;69.20;;;;;;5057317;28;20037;-77
2023/05/30 12:45:06;;;;;;;14.50;6.53;;;27.20;69.30;;;;;;5057753;28;20044;-78